Time;durP1;ratioP1;P1;durP2;ratioP2;P2;SDS_P1;SDS_P2;PMS_P1;PMS_P2;Temp;Humidity;BMP_temperature;BMP_pressure;BME280_temperature;BME280_humidity;BME280_pressure;Samples;Min_cycle;Max_cycle;Signal;HPM_P1;HPM_P2
2021/04/03 00:01:23;;;;;;;20.53;8.87;;;7.10;83.30;;;;;;4397450;32;20144;-70
2021/04/03 00:03:50;;;;;;;18.97;8.70;;;7.10;83.60;;;;;;4411397;32;20158;-70
2021/04/03 00:06:16;;;;;;;17.67;8.40;;;7.00;83.80;;;;;;4411415;32;20143;-70
2021/04/03 00:08:43;;;;;;;17.47;8.13;;;7.00;84.20;;;;;;4408592;32;20154;-70
2021/04/03 00:11:10;;;;;;;17.40;8.50;;;6.90;84.50;;;;;;4410316;32;20217;-72
2021/04/03 00:13:39;;;;;;;18.33;8.50;;;6.90;84.80;;;;;;4406802;32;20533;-72
2021/04/03 00:16:06;;;;;;;15.80;8.40;;;6.90;85.20;;;;;;4409257;32;20159;-71
2021/04/03 00:18:33;;;;;;;16.47;8.23;;;6.80;85.70;;;;;;4409141;32;20164;-72
2021/04/03 00:21:00;;;;;;;17.77;8.27;;;6.70;86.30;;;;;;4407741;32;20193;-72
2021/04/03 00:23:26;;;;;;;16.67;8.20;;;6.70;86.50;;;;;;4409175;32;20163;-71
2021/04/03 00:25:54;;;;;;;15.67;8.43;;;6.80;86.30;;;;;;4408869;32;20167;-71
2021/04/03 00:28:21;;;;;;;17.30;8.20;;;6.80;86.30;;;;;;4407079;32;20246;-72
2021/04/03 00:30:47;;;;;;;17.30;8.10;;;6.80;86.80;;;;;;4409636;32;20173;-72
2021/04/03 00:33:14;;;;;;;14.93;7.23;;;6.70;86.90;;;;;;4409679;32;20148;-72
2021/04/03 00:35:42;;;;;;;15.97;7.87;;;6.70;87.00;;;;;;4409724;32;20159;-71
2021/04/03 00:38:09;;;;;;;15.13;7.87;;;6.70;87.50;;;;;;4409740;32;20509;-72
2021/04/03 00:40:37;;;;;;;15.00;8.03;;;6.70;87.70;;;;;;4409627;32;20149;-72
2021/04/03 00:43:11;;;;;;;15.60;7.37;;;6.60;88.00;;;;;;4408947;32;20523;-72
2021/04/03 00:45:38;;;;;;;12.80;7.30;;;6.60;88.40;;;;;;4409493;32;20142;-73
2021/04/03 00:48:06;;;;;;;13.60;7.20;;;6.60;88.70;;;;;;4410990;32;20185;-72
2021/04/03 00:50:39;;;;;;;14.47;7.23;;;6.60;89.00;;;;;;4409569;32;20155;-72
2021/04/03 00:53:08;;;;;;;16.20;7.60;;;6.60;89.20;;;;;;4411172;32;20200;-73
2021/04/03 00:55:35;;;;;;;13.77;6.57;;;6.50;89.40;;;;;;4410031;32;20143;-72
2021/04/03 00:58:02;;;;;;;12.10;6.53;;;6.40;90.00;;;;;;4408911;32;20431;-72
2021/04/03 01:00:28;;;;;;;13.93;6.47;;;6.50;89.90;;;;;;4409385;32;20449;-72
2021/04/03 01:02:55;;;;;;;13.83;6.33;;;6.40;90.00;;;;;;4410862;32;20194;-72
2021/04/03 01:05:24;;;;;;;13.07;6.67;;;6.40;90.20;;;;;;4409364;32;20150;-72
2021/04/03 01:07:50;;;;;;;14.20;6.60;;;6.40;90.20;;;;;;4410449;32;20161;-72
2021/04/03 01:10:25;;;;;;;12.00;6.53;;;6.50;90.30;;;;;;4409222;32;20154;-71
2021/04/03 01:13:16;;;;;;;14.33;6.93;;;6.50;90.30;;;;;;4410978;32;20192;-71
2021/04/03 01:15:49;;;;;;;11.83;6.27;;;6.50;90.30;;;;;;4410686;32;20201;-71
2021/04/03 01:18:54;;;;;;;16.77;7.00;;;6.40;90.50;;;;;;4410962;32;20194;-71
2021/04/03 01:21:33;;;;;;;13.37;6.73;;;6.40;90.70;;;;;;4377253;32;20241;-71
2021/04/03 01:24:18;;;;;;;12.53;6.40;;;6.30;91.00;;;;;;4377346;32;20160;-71
2021/04/03 01:27:06;;;;;;;12.27;6.20;;;6.20;91.30;;;;;;4377029;32;20172;-71
2021/04/03 01:30:06;;;;;;;12.37;6.23;;;6.20;91.70;;;;;;4378625;32;20503;-71
2021/04/03 01:33:02;;;;;;;11.43;6.13;;;6.10;92.10;;;;;;4359568;32;20177;-72
2021/04/03 01:35:47;;;;;;;12.40;6.33;;;6.10;92.00;;;;;;4376761;32;20179;-71
2021/04/03 01:38:45;;;;;;;11.77;6.17;;;6.10;92.30;;;;;;4376593;32;20198;-71
2021/04/03 01:41:14;;;;;;;14.07;6.57;;;6.10;92.80;;;;;;4318157;33;20589;-71
2021/04/03 01:43:45;;;;;;;11.67;6.13;;;6.00;93.00;;;;;;4318285;33;20163;-71
2021/04/03 01:46:14;;;;;;;11.67;6.10;;;6.00;93.30;;;;;;4318097;33;20181;-71
2021/04/03 01:48:42;;;;;;;12.33;6.13;;;6.00;93.40;;;;;;4318590;33;20154;-71
2021/04/03 01:51:14;;;;;;;10.97;6.00;;;6.00;93.60;;;;;;4316991;33;20191;-71
2021/04/03 01:53:42;;;;;;;11.00;6.20;;;6.10;93.50;;;;;;4317430;33;20509;-72
2021/04/03 01:56:11;;;;;;;13.93;6.70;;;6.10;93.10;;;;;;4317470;33;20187;-71
2021/04/03 01:58:39;;;;;;;12.83;6.60;;;6.10;93.30;;;;;;4334227;33;20589;-71
2021/04/03 02:01:06;;;;;;;11.57;6.37;;;6.00;93.40;;;;;;4348391;33;20154;-71
2021/04/03 02:03:33;;;;;;;15.97;6.77;;;6.00;93.90;;;;;;4348251;33;20501;-71
2021/04/03 02:06:05;;;;;;;13.40;6.23;;;6.00;93.40;;;;;;4348336;33;20166;-72
2021/04/03 02:08:33;;;;;;;11.83;5.63;;;6.00;93.60;;;;;;4349325;33;20221;-71
2021/04/03 02:11:04;;;;;;;10.23;5.60;;;6.00;93.90;;;;;;4350048;33;20201;-71
2021/04/03 02:13:33;;;;;;;11.50;6.40;;;6.00;94.00;;;;;;4349379;33;20140;-71
2021/04/03 02:16:04;;;;;;;11.40;5.73;;;6.00;93.60;;;;;;4349323;33;20361;-71
2021/04/03 02:18:32;;;;;;;11.00;6.00;;;6.00;93.60;;;;;;4405147;32;20168;-71
2021/04/03 02:21:03;;;;;;;12.57;6.23;;;5.90;93.70;;;;;;4413197;32;20186;-71
2021/04/03 02:23:34;;;;;;;11.63;5.70;;;5.90;93.70;;;;;;4413175;32;20153;-71
2021/04/03 02:26:02;;;;;;;11.07;5.83;;;5.90;94.20;;;;;;4413332;32;20147;-71
2021/04/03 02:28:29;;;;;;;9.80;5.80;;;5.80;94.70;;;;;;4413083;32;20140;-71
2021/04/03 02:30:56;;;;;;;11.43;6.13;;;5.80;94.80;;;;;;4413025;32;20152;-71
2021/04/03 02:33:23;;;;;;;11.43;6.10;;;5.80;95.20;;;;;;4411545;32;20164;-71
2021/04/03 02:35:49;;;;;;;11.87;5.70;;;5.80;95.20;;;;;;4412881;32;20179;-70
2021/04/03 02:38:17;;;;;;;10.60;5.53;;;5.70;95.10;;;;;;4411289;32;20174;-71
2021/04/03 02:40:45;;;;;;;10.97;5.37;;;5.80;95.20;;;;;;4412840;32;20134;-70
2021/04/03 02:43:33;;;;;;;10.83;5.33;;;5.70;95.50;;;;;;4412840;32;20598;-75
2021/04/03 02:46:25;;;;;;;11.50;5.40;;;5.70;95.70;;;;;;4412783;32;20158;-75
2021/04/03 02:48:56;;;;;;;11.53;5.40;;;5.60;95.70;;;;;;4412832;32;20467;-71
2021/04/03 02:51:38;;;;;;;11.43;5.90;;;5.60;96.00;;;;;;4413017;32;20167;-72
2021/04/03 02:54:08;;;;;;;12.60;5.70;;;5.60;96.30;;;;;;4412686;32;20468;-71
2021/04/03 02:56:37;;;;;;;10.73;5.50;;;5.60;96.20;;;;;;4412651;32;20144;-71
2021/04/03 02:59:05;;;;;;;9.63;5.37;;;5.60;96.10;;;;;;4412584;32;20224;-70
2021/04/03 03:01:33;;;;;;;9.97;5.00;;;5.70;96.10;;;;;;4411982;32;20165;-70
2021/04/03 03:04:02;;;;;;;11.30;5.53;;;5.70;96.10;;;;;;4413122;32;20383;-70
2021/04/03 03:06:32;;;;;;;10.97;4.90;;;5.60;96.10;;;;;;4411096;32;20178;-70
2021/04/03 03:09:00;;;;;;;9.13;4.80;;;5.60;96.80;;;;;;4410947;32;20220;-72
2021/04/03 03:11:27;;;;;;;8.60;4.33;;;5.50;96.60;;;;;;4410353;32;20480;-72
2021/04/03 03:13:55;;;;;;;8.13;3.73;;;5.50;96.60;;;;;;4410911;32;20424;-71
2021/04/03 03:16:24;;;;;;;6.73;3.07;;;5.50;96.30;;;;;;4412368;32;20474;-72
2021/04/03 03:18:51;;;;;;;6.47;3.33;;;5.40;95.90;;;;;;4410845;32;20475;-72
2021/04/03 03:21:18;;;;;;;6.87;4.00;;;5.40;96.20;;;;;;4410306;32;20425;-70
2021/04/03 03:23:44;;;;;;;6.40;3.20;;;5.40;96.00;;;;;;4410538;32;20156;-70
2021/04/03 03:26:11;;;;;;;6.43;3.30;;;5.40;96.00;;;;;;4412542;32;20189;-71
2021/04/03 03:28:39;;;;;;;5.33;3.00;;;5.40;96.30;;;;;;4411065;32;20144;-70
2021/04/03 03:31:06;;;;;;;5.53;3.00;;;5.40;96.00;;;;;;4412065;32;20135;-73
2021/04/03 03:33:32;;;;;;;6.17;3.10;;;5.40;95.60;;;;;;4412217;32;20149;-71
2021/04/03 03:36:00;;;;;;;6.53;3.23;;;5.40;95.60;;;;;;4412126;32;20189;-72
2021/04/03 03:38:26;;;;;;;5.17;3.00;;;5.40;95.90;;;;;;4410494;32;20169;-70
2021/04/03 03:40:54;;;;;;;4.30;2.80;;;5.30;95.40;;;;;;4412091;32;20390;-72
2021/04/03 03:43:21;;;;;;;5.70;2.83;;;5.30;95.60;;;;;;4410593;32;20218;-72
2021/04/03 03:45:48;;;;;;;4.87;2.87;;;5.40;95.60;;;;;;4411982;32;20204;-70
2021/04/03 03:48:15;;;;;;;5.33;2.90;;;5.40;95.20;;;;;;4410469;32;20492;-72
2021/04/03 03:50:41;;;;;;;4.67;2.70;;;5.40;95.00;;;;;;4410360;32;20401;-70
2021/04/03 03:53:08;;;;;;;5.40;3.00;;;5.40;95.20;;;;;;4410244;32;20320;-71
2021/04/03 03:55:34;;;;;;;4.67;2.70;;;5.30;95.10;;;;;;4411725;32;20170;-71
2021/04/03 03:58:01;;;;;;;4.70;2.60;;;5.30;95.10;;;;;;4411631;32;20207;-70
2021/04/03 04:00:27;;;;;;;5.20;2.60;;;5.20;95.60;;;;;;4410127;32;20219;-71
2021/04/03 04:02:54;;;;;;;5.13;2.70;;;5.30;95.40;;;;;;4409606;32;20149;-71
2021/04/03 04:05:20;;;;;;;5.77;3.13;;;5.30;96.00;;;;;;4411009;32;20229;-72
2021/04/03 04:07:47;;;;;;;6.47;3.00;;;5.20;97.30;;;;;;4409892;32;20215;-70
2021/04/03 04:10:13;;;;;;;7.03;3.30;;;5.30;98.10;;;;;;4410803;32;20154;-71
2021/04/03 04:12:40;;;;;;;6.17;3.30;;;5.10;98.80;;;;;;4411578;32;20374;-72
2021/04/03 04:15:08;;;;;;;5.03;2.87;;;5.10;99.60;;;;;;4411511;32;20147;-70
2021/04/03 04:17:35;;;;;;;4.47;2.80;;;5.00;99.70;;;;;;4411486;32;20185;-72
2021/04/03 04:20:03;;;;;;;5.97;3.13;;;5.00;99.90;;;;;;4411471;32;20492;-72
2021/04/03 04:22:29;;;;;;;5.03;2.93;;;5.00;99.90;;;;;;4410268;32;20145;-70
2021/04/03 04:24:55;;;;;;;4.90;3.03;;;5.00;99.90;;;;;;4411428;32;20209;-70
2021/04/03 04:27:22;;;;;;;7.73;5.33;;;4.90;99.90;;;;;;4409859;32;20387;-71
2021/04/03 04:29:48;;;;;;;10.13;5.60;;;4.80;99.90;;;;;;4411382;32;20444;-72
2021/04/03 04:32:16;;;;;;;7.33;4.40;;;4.70;99.90;;;;;;4410570;32;20151;-72
2021/04/03 04:34:42;;;;;;;8.03;4.97;;;4.60;99.90;;;;;;4411302;32;20141;-71
2021/04/03 04:37:09;;;;;;;8.03;5.57;;;4.50;99.90;;;;;;4409736;32;20185;-71
2021/04/03 04:39:35;;;;;;;9.47;5.07;;;4.30;99.90;;;;;;4409723;32;20143;-71
2021/04/03 04:42:04;;;;;;;11.07;6.37;;;4.20;99.90;;;;;;4409683;32;20141;-71
2021/04/03 04:44:31;;;;;;;10.83;6.60;;;4.20;99.90;;;;;;4410224;32;20148;-71
2021/04/03 04:46:57;;;;;;;13.97;8.03;;;4.30;99.90;;;;;;4411123;32;20154;-71
2021/04/03 04:49:24;;;;;;;14.93;9.10;;;4.30;99.90;;;;;;4410409;32;20147;-71
2021/04/03 04:51:50;;;;;;;10.70;6.37;;;4.30;99.90;;;;;;4411046;32;20170;-71
2021/04/03 04:54:17;;;;;;;10.70;6.00;;;4.20;99.90;;;;;;4410975;32;20147;-71
2021/04/03 04:56:43;;;;;;;9.40;4.80;;;4.20;99.90;;;;;;4409471;32;20144;-71
2021/04/03 04:59:09;;;;;;;11.00;4.77;;;4.30;99.90;;;;;;4409282;32;20473;-71
2021/04/03 05:01:36;;;;;;;8.27;4.80;;;4.30;99.90;;;;;;4409346;32;20197;-71
2021/04/03 05:04:02;;;;;;;8.63;4.90;;;4.10;99.90;;;;;;4411405;32;20141;-72
2021/04/03 05:06:29;;;;;;;9.50;5.10;;;4.10;99.90;;;;;;4410909;32;20159;-71
2021/04/03 05:08:55;;;;;;;9.93;5.37;;;4.10;99.90;;;;;;4408996;32;20184;-72
2021/04/03 05:11:22;;;;;;;10.17;5.57;;;4.10;99.90;;;;;;4409239;32;20144;-72
2021/04/03 05:13:48;;;;;;;9.70;5.27;;;4.10;99.90;;;;;;4410339;32;20177;-72
2021/04/03 05:16:15;;;;;;;12.60;6.17;;;4.10;99.90;;;;;;4409407;32;20203;-71
2021/04/03 05:18:41;;;;;;;10.97;6.73;;;4.20;99.90;;;;;;4410366;32;20187;-71
2021/04/03 05:21:07;;;;;;;11.53;7.23;;;4.10;99.90;;;;;;4410323;32;20410;-71
2021/04/03 05:23:34;;;;;;;11.03;6.37;;;4.10;99.90;;;;;;4408782;32;20190;-72
2021/04/03 05:26:01;;;;;;;12.93;6.60;;;4.10;99.90;;;;;;4410266;32;20144;-71
2021/04/03 05:28:27;;;;;;;12.73;5.87;;;4.20;99.90;;;;;;4408661;32;20195;-71
2021/04/03 05:30:54;;;;;;;9.20;5.47;;;4.10;99.90;;;;;;4408730;32;20141;-72
2021/04/03 05:33:20;;;;;;;9.07;5.53;;;4.00;99.90;;;;;;4410179;32;20170;-72
2021/04/03 05:35:47;;;;;;;8.60;4.47;;;4.20;99.90;;;;;;4408884;32;20188;-72
2021/04/03 05:38:13;;;;;;;9.20;4.50;;;4.10;99.90;;;;;;4410033;32;20207;-72
2021/04/03 05:40:40;;;;;;;6.07;3.70;;;4.10;99.90;;;;;;4407687;32;20492;-72
2021/04/03 05:43:06;;;;;;;6.00;3.40;;;4.10;99.90;;;;;;4410824;32;20145;-72
2021/04/03 05:45:37;;;;;;;6.27;3.60;;;4.20;99.90;;;;;;4412116;32;20195;-72
2021/04/03 05:48:04;;;;;;;5.57;3.33;;;4.20;99.90;;;;;;4413224;32;20136;-72
2021/04/03 05:50:32;;;;;;;5.67;3.63;;;4.30;99.90;;;;;;4412742;32;20144;-73
2021/04/03 05:52:59;;;;;;;6.67;3.83;;;4.30;99.90;;;;;;4413116;32;20174;-73
2021/04/03 05:55:26;;;;;;;7.23;4.20;;;4.30;99.90;;;;;;4411805;32;20171;-73
2021/04/03 05:57:52;;;;;;;6.20;4.40;;;4.30;99.90;;;;;;4411591;32;20178;-73
2021/04/03 06:00:19;;;;;;;6.27;4.27;;;4.20;99.90;;;;;;4413415;32;20513;-73
2021/04/03 06:02:46;;;;;;;7.00;4.87;;;4.20;99.90;;;;;;4412968;32;20424;-73
2021/04/03 06:05:13;;;;;;;8.30;4.90;;;4.20;99.90;;;;;;4413078;32;20474;-73
2021/04/03 06:07:40;;;;;;;8.90;5.40;;;4.20;99.90;;;;;;4411390;32;20159;-73
2021/04/03 06:10:09;;;;;;;9.07;5.63;;;4.20;99.90;;;;;;4413357;32;20138;-73
2021/04/03 06:12:49;;;;;;;9.87;5.77;;;4.20;99.90;;;;;;4411761;32;20200;-73
2021/04/03 06:15:28;;;;;;;9.47;5.67;;;4.00;99.90;;;;;;4411027;32;20431;-73
2021/04/03 06:17:56;;;;;;;8.40;5.47;;;4.10;99.90;;;;;;4411443;32;20165;-73
2021/04/03 06:20:34;;;;;;;10.00;6.37;;;4.20;99.90;;;;;;4411520;32;20431;-73
2021/04/03 06:23:06;;;;;;;9.53;6.00;;;4.20;99.90;;;;;;4412989;32;20470;-73
2021/04/03 06:25:51;;;;;;;10.87;6.20;;;4.30;99.90;;;;;;4412798;32;20190;-73
2021/04/03 06:28:25;;;;;;;10.97;5.90;;;4.40;99.90;;;;;;4412577;32;20174;-72
2021/04/03 06:30:57;;;;;;;12.13;6.47;;;4.50;99.90;;;;;;4412578;32;20175;-72
2021/04/03 06:33:23;;;;;;;9.87;5.97;;;4.60;99.90;;;;;;4412953;32;20216;-73
2021/04/03 06:36:08;;;;;;;11.17;6.23;;;4.60;99.90;;;;;;4411933;32;20375;-73
2021/04/03 06:38:35;;;;;;;9.83;5.90;;;4.50;99.90;;;;;;4412812;32;20198;-73
2021/04/03 06:41:23;;;;;;;9.83;5.97;;;4.60;99.90;;;;;;4412002;32;20201;-72
2021/04/03 06:44:04;;;;;;;10.00;6.03;;;4.70;99.90;;;;;;4410810;32;20448;-72
2021/04/03 06:46:33;;;;;;;10.27;6.20;;;4.80;99.90;;;;;;4411353;32;20483;-72
2021/04/03 06:49:00;;;;;;;10.93;5.53;;;4.90;99.90;;;;;;4411995;32;20182;-72
2021/04/03 06:51:28;;;;;;;9.63;5.73;;;4.90;99.90;;;;;;4411169;32;20209;-72
2021/04/03 06:53:57;;;;;;;10.73;6.00;;;4.90;99.90;;;;;;4412349;32;20148;-72
2021/04/03 06:56:27;;;;;;;11.00;5.80;;;4.80;99.90;;;;;;4411896;32;20385;-73
2021/04/03 06:59:10;;;;;;;11.17;5.97;;;4.80;99.90;;;;;;4412095;32;20174;-72
2021/04/03 07:01:49;;;;;;;11.87;6.13;;;4.70;99.90;;;;;;4412342;32;20432;-72
2021/04/03 07:04:28;;;;;;;10.37;5.87;;;4.80;99.90;;;;;;4410394;32;20458;-72
2021/04/03 07:06:56;;;;;;;10.43;5.80;;;4.80;99.90;;;;;;4411433;32;20442;-72
2021/04/03 07:09:23;;;;;;;11.57;6.03;;;4.80;99.90;;;;;;4412386;32;20167;-72
2021/04/03 07:11:54;;;;;;;8.93;5.63;;;4.90;99.90;;;;;;4412481;32;20176;-72
2021/04/03 07:14:22;;;;;;;8.73;5.90;;;5.00;99.90;;;;;;4412923;32;20362;-72
2021/04/03 07:16:50;;;;;;;10.23;6.40;;;5.00;99.90;;;;;;4410922;32;20179;-72
2021/04/03 07:19:21;;;;;;;10.07;5.87;;;5.00;99.90;;;;;;4411279;32;20147;-72
2021/04/03 07:21:48;;;;;;;12.07;5.80;;;4.90;99.90;;;;;;4411311;32;20476;-72
2021/04/03 07:24:18;;;;;;;8.50;5.90;;;4.90;99.90;;;;;;4412193;32;20172;-71
2021/04/03 07:26:47;;;;;;;9.47;5.50;;;5.00;99.90;;;;;;4410219;32;20467;-72
2021/04/03 07:29:38;;;;;;;9.00;6.00;;;5.10;99.90;;;;;;4410751;32;20162;-72
2021/04/03 07:32:34;;;;;;;10.90;6.03;;;5.10;99.90;;;;;;4411863;32;20566;-72
2021/04/03 07:35:17;;;;;;;11.40;6.00;;;5.20;99.90;;;;;;4412145;32;20160;-73
2021/04/03 07:37:44;;;;;;;10.87;6.07;;;5.20;99.90;;;;;;4411984;32;20203;-70
2021/04/03 07:40:34;;;;;;;10.37;5.87;;;5.30;99.90;;;;;;4411323;32;20159;-71
2021/04/03 07:43:02;;;;;;;9.63;5.70;;;5.40;99.90;;;;;;4410563;32;20190;-72
2021/04/03 07:45:32;;;;;;;10.27;6.17;;;5.40;99.90;;;;;;4410192;32;20195;-71
2021/04/03 07:47:59;;;;;;;11.67;6.80;;;5.40;99.90;;;;;;4410192;32;20507;-72
2021/04/03 07:50:49;;;;;;;9.80;5.80;;;5.30;99.90;;;;;;4410020;32;20149;-71
2021/04/03 07:53:37;;;;;;;11.33;5.90;;;5.40;99.90;;;;;;4412043;32;20191;-72
2021/04/03 07:56:05;;;;;;;8.77;5.77;;;5.30;99.90;;;;;;4411114;32;20202;-72
2021/04/03 07:58:34;;;;;;;10.07;5.33;;;5.30;99.90;;;;;;4411313;32;20183;-72
2021/04/03 08:01:18;;;;;;;11.57;6.17;;;5.10;99.90;;;;;;4411503;32;20234;-73
2021/04/03 08:03:59;;;;;;;12.30;6.30;;;5.10;99.90;;;;;;4409988;32;20183;-73
2021/04/03 08:06:44;;;;;;;9.03;5.90;;;5.00;99.90;;;;;;4409976;32;20216;-73
2021/04/03 08:09:17;;;;;;;7.93;4.80;;;4.90;99.90;;;;;;4409849;32;20425;-72
2021/04/03 08:11:46;;;;;;;5.60;4.40;;;4.80;99.90;;;;;;4410574;32;20139;-73
2021/04/03 08:14:14;;;;;;;7.93;4.67;;;4.80;99.90;;;;;;4410670;32;20359;-73
2021/04/03 08:16:41;;;;;;;7.77;4.67;;;4.80;99.90;;;;;;4411241;32;20136;-73
2021/04/03 08:19:09;;;;;;;8.93;5.00;;;4.80;99.90;;;;;;4410018;32;20175;-73
2021/04/03 08:21:44;;;;;;;8.40;4.63;;;4.90;99.90;;;;;;4411121;32;20206;-73
2021/04/03 08:24:10;;;;;;;6.57;4.83;;;5.10;99.90;;;;;;4409246;32;20146;-73
2021/04/03 08:26:40;;;;;;;8.00;4.23;;;5.40;99.90;;;;;;4409790;32;20449;-73
2021/04/03 08:29:08;;;;;;;6.77;4.70;;;5.70;99.90;;;;;;4410523;32;20181;-73
2021/04/03 08:31:35;;;;;;;7.03;4.40;;;5.90;99.90;;;;;;4409768;32;20175;-73
2021/04/03 08:34:05;;;;;;;7.90;4.43;;;6.10;99.90;;;;;;4410759;32;20422;-73
2021/04/03 08:36:34;;;;;;;7.70;4.40;;;6.30;99.90;;;;;;4410765;32;20208;-73
2021/04/03 08:39:04;;;;;;;7.20;4.47;;;6.50;99.90;;;;;;4410359;32;20178;-73
2021/04/03 08:41:31;;;;;;;5.77;3.93;;;6.50;99.60;;;;;;4411122;32;20385;-73
2021/04/03 08:43:57;;;;;;;6.37;4.27;;;6.70;99.60;;;;;;4409331;32;20148;-73
2021/04/03 08:46:25;;;;;;;8.27;4.17;;;7.00;97.00;;;;;;4410021;32;20473;-73
2021/04/03 08:48:59;;;;;;;8.00;4.30;;;7.20;94.00;;;;;;4408652;32;20218;-73
2021/04/03 08:51:26;;;;;;;7.67;4.50;;;7.40;94.70;;;;;;4409988;32;20158;-73
2021/04/03 08:54:00;;;;;;;7.67;4.53;;;7.50;94.60;;;;;;4409796;32;20155;-72
2021/04/03 08:56:31;;;;;;;10.07;4.50;;;7.40;94.50;;;;;;4409497;32;20166;-73
2021/04/03 08:59:00;;;;;;;6.20;4.03;;;7.60;93.80;;;;;;4410028;32;20157;-73
2021/04/03 09:01:30;;;;;;;6.00;4.00;;;7.30;90.70;;;;;;4408885;32;20150;-71
2021/04/03 09:04:03;;;;;;;7.83;4.17;;;7.30;93.00;;;;;;4407377;32;20165;-73
2021/04/03 09:06:43;;;;;;;6.67;3.83;;;7.40;93.00;;;;;;4410672;32;20144;-73
2021/04/03 09:09:11;;;;;;;4.97;3.60;;;7.60;92.50;;;;;;4409205;32;20155;-73
2021/04/03 09:11:38;;;;;;;5.17;3.70;;;7.60;91.20;;;;;;4410531;32;20150;-73
2021/04/03 09:14:05;;;;;;;6.20;3.67;;;7.50;90.10;;;;;;4408898;32;20146;-71
2021/04/03 09:16:37;;;;;;;5.70;3.50;;;7.70;91.10;;;;;;4409203;32;20159;-73
2021/04/03 09:19:04;;;;;;;6.77;3.77;;;8.10;90.70;;;;;;4409708;32;20155;-72
2021/04/03 09:21:31;;;;;;;5.07;3.57;;;8.80;88.80;;;;;;4408669;32;20151;-72
2021/04/03 09:23:58;;;;;;;4.40;2.80;;;9.70;85.40;;;;;;4409898;32;20343;-71
2021/04/03 09:26:33;;;;;;;4.40;3.10;;;10.20;79.70;;;;;;4408886;32;20174;-71
2021/04/03 09:29:09;;;;;;;4.67;3.20;;;10.50;75.80;;;;;;4410567;32;20150;-72
2021/04/03 09:31:43;;;;;;;4.30;3.17;;;10.70;75.40;;;;;;4409192;32;20144;-72
2021/04/03 09:34:18;;;;;;;3.93;2.83;;;10.90;73.00;;;;;;4406928;32;20146;-72
2021/04/03 09:36:47;;;;;;;5.87;3.23;;;10.80;73.40;;;;;;4409670;32;20151;-71
2021/04/03 09:39:15;;;;;;;5.43;3.03;;;10.70;72.60;;;;;;4409375;32;20476;-72
2021/04/03 09:41:52;;;;;;;4.17;3.20;;;9.90;71.70;;;;;;4405564;32;20219;-71
2021/04/03 09:44:18;;;;;;;5.10;2.80;;;10.00;73.00;;;;;;4409894;32;20188;-70
2021/04/03 09:46:45;;;;;;;4.63;2.70;;;10.20;72.10;;;;;;4408688;32;20147;-69
2021/04/03 09:49:12;;;;;;;5.07;2.73;;;10.10;71.70;;;;;;4408761;32;20143;-72
2021/04/03 09:51:39;;;;;;;4.60;2.30;;;9.90;73.90;;;;;;4410061;32;20457;-72
2021/04/03 09:54:05;;;;;;;4.20;2.33;;;10.30;73.80;;;;;;4394146;32;20579;-71
2021/04/03 09:56:32;;;;;;;3.93;2.60;;;11.00;70.60;;;;;;4398141;32;20151;-71
2021/04/03 09:58:59;;;;;;;4.80;2.83;;;11.40;68.10;;;;;;4406871;32;20209;-70
2021/04/03 10:01:26;;;;;;;3.97;2.60;;;11.30;65.60;;;;;;4402906;32;20151;-70
2021/04/03 10:03:55;;;;;;;4.07;2.20;;;11.30;66.90;;;;;;4393531;32;20140;-72
2021/04/03 10:06:22;;;;;;;2.77;2.00;;;10.70;66.80;;;;;;4394532;32;20140;-72
2021/04/03 10:08:48;;;;;;;2.40;1.80;;;11.10;66.30;;;;;;4393580;32;20163;-71
2021/04/03 10:11:15;;;;;;;3.43;1.97;;;11.50;66.00;;;;;;4394994;32;20143;-72
2021/04/03 10:13:44;;;;;;;2.77;1.93;;;11.60;62.70;;;;;;4393441;32;20195;-72
2021/04/03 10:16:11;;;;;;;3.83;2.03;;;10.90;62.70;;;;;;4394241;32;20474;-70
2021/04/03 10:18:37;;;;;;;3.53;2.23;;;10.70;65.50;;;;;;4394724;32;20199;-71
2021/04/03 10:21:07;;;;;;;3.90;2.20;;;10.90;65.20;;;;;;4393497;32;20390;-71
2021/04/03 10:23:33;;;;;;;2.87;1.80;;;10.70;65.40;;;;;;4404747;32;20154;-71
2021/04/03 10:26:00;;;;;;;3.30;1.70;;;10.40;65.50;;;;;;4408393;32;20347;-72
2021/04/03 10:28:26;;;;;;;4.17;1.70;;;10.50;64.90;;;;;;4407460;32;20231;-71
2021/04/03 10:30:53;;;;;;;4.40;1.87;;;11.00;65.70;;;;;;4411989;32;20202;-72
2021/04/03 10:33:20;;;;;;;3.20;2.00;;;11.00;64.40;;;;;;4412584;32;20355;-72
2021/04/03 10:35:46;;;;;;;2.63;1.50;;;10.70;63.90;;;;;;4410957;32;20181;-72
2021/04/03 10:38:17;;;;;;;2.33;1.70;;;10.60;65.00;;;;;;4412870;32;20173;-72
2021/04/03 10:40:43;;;;;;;3.57;1.80;;;10.60;65.40;;;;;;4412082;32;20139;-72
2021/04/03 10:43:10;;;;;;;2.57;1.70;;;10.20;67.00;;;;;;4411383;32;20143;-72
2021/04/03 10:45:36;;;;;;;2.40;1.40;;;10.10;66.00;;;;;;4411198;32;20162;-71
2021/04/03 10:48:03;;;;;;;2.53;1.50;;;10.30;65.20;;;;;;4411405;32;20144;-71
2021/04/03 10:50:30;;;;;;;2.30;1.20;;;10.90;62.80;;;;;;4411863;32;20139;-72
2021/04/03 10:52:56;;;;;;;2.13;1.30;;;12.00;60.10;;;;;;4412289;32;20143;-71
2021/04/03 10:55:23;;;;;;;2.50;1.20;;;13.00;56.30;;;;;;4411294;32;20185;-71
2021/04/03 10:57:49;;;;;;;3.37;1.40;;;13.00;55.50;;;;;;4410704;32;20173;-72
2021/04/03 11:00:16;;;;;;;3.60;1.30;;;13.10;54.60;;;;;;4411283;32;20190;-71
2021/04/03 11:02:43;;;;;;;2.60;1.40;;;12.50;53.40;;;;;;4412511;32;20392;-72
2021/04/03 11:05:10;;;;;;;3.50;1.50;;;12.30;54.60;;;;;;4412446;32;20141;-75
2021/04/03 11:07:36;;;;;;;3.20;1.30;;;12.00;55.30;;;;;;4410782;32;20190;-71
2021/04/03 11:10:03;;;;;;;2.20;1.30;;;11.60;56.40;;;;;;4410614;32;20155;-71
2021/04/03 11:12:29;;;;;;;3.20;1.20;;;11.60;56.00;;;;;;4412455;32;20135;-71
2021/04/03 11:14:56;;;;;;;3.13;1.30;;;11.50;55.00;;;;;;4411104;32;20522;-71
2021/04/03 11:17:22;;;;;;;3.67;1.27;;;12.00;54.20;;;;;;4412321;32;20191;-71
2021/04/03 11:19:48;;;;;;;2.57;1.40;;;13.00;53.50;;;;;;4411124;32;20201;-72
2021/04/03 11:22:15;;;;;;;2.20;1.20;;;14.00;51.50;;;;;;4410898;32;20165;-73
2021/04/03 11:24:42;;;;;;;3.77;1.20;;;15.20;48.80;;;;;;4410309;32;20170;-72
2021/04/03 11:27:09;;;;;;;2.80;1.30;;;15.90;47.10;;;;;;4410674;32;20182;-73
2021/04/03 11:29:45;;;;;;;2.50;1.50;;;16.10;44.20;;;;;;4412683;32;20162;-78
2021/04/03 11:32:12;;;;;;;3.10;1.40;;;15.50;45.60;;;;;;4410697;32;20191;-72
2021/04/03 11:34:39;;;;;;;2.30;1.10;;;15.10;48.30;;;;;;4412301;32;20229;-71
2021/04/03 11:37:05;;;;;;;1.63;1.07;;;14.10;49.50;;;;;;4410377;32;20147;-71
2021/04/03 11:39:32;;;;;;;2.40;1.00;;;13.70;48.60;;;;;;4409889;32;20211;-70
2021/04/03 11:41:59;;;;;;;1.37;0.80;;;14.10;50.80;;;;;;4411493;32;20221;-72
2021/04/03 11:44:26;;;;;;;2.30;0.80;;;14.40;45.10;;;;;;4411787;32;20192;-72
2021/04/03 11:46:53;;;;;;;1.40;0.70;;;15.20;45.20;;;;;;4411335;32;20167;-71
2021/04/03 11:49:19;;;;;;;1.37;0.80;;;16.10;43.40;;;;;;4410727;32;20210;-71
2021/04/03 11:51:46;;;;;;;2.00;0.87;;;17.80;40.50;;;;;;4409384;32;20217;-71
2021/04/03 11:54:14;;;;;;;1.90;1.00;;;18.90;38.20;;;;;;4397485;32;20178;-71
2021/04/03 11:56:40;;;;;;;2.50;0.93;;;18.50;36.80;;;;;;4396721;32;20178;-71
2021/04/03 11:59:06;;;;;;;2.23;1.07;;;17.40;39.20;;;;;;4396299;32;20421;-69
2021/04/03 12:01:33;;;;;;;2.17;1.07;;;16.70;40.80;;;;;;4396427;32;20135;-69
2021/04/03 12:03:59;;;;;;;1.97;0.90;;;15.90;42.90;;;;;;4394813;32;20148;-72
2021/04/03 12:06:26;;;;;;;1.93;0.90;;;14.70;45.10;;;;;;4392084;32;20185;-72
2021/04/03 12:08:52;;;;;;;1.53;0.70;;;14.30;45.70;;;;;;4392714;32;20171;-70
2021/04/03 12:11:18;;;;;;;3.47;0.67;;;13.90;45.80;;;;;;4391389;32;20217;-72
2021/04/03 12:13:45;;;;;;;1.40;0.67;;;13.60;46.80;;;;;;4392690;32;20178;-72
2021/04/03 12:16:11;;;;;;;1.23;0.60;;;13.20;46.60;;;;;;4391201;32;20194;-71
2021/04/03 12:18:39;;;;;;;1.73;0.60;;;13.20;46.90;;;;;;4392794;32;20163;-72
2021/04/03 12:21:05;;;;;;;4.00;0.70;;;13.20;47.60;;;;;;4393909;32;20165;-71
2021/04/03 12:23:31;;;;;;;2.03;0.70;;;13.40;47.50;;;;;;4394689;32;20182;-72
2021/04/03 12:25:58;;;;;;;2.07;0.90;;;13.70;46.90;;;;;;4395127;32;20196;-72
2021/04/03 12:28:24;;;;;;;2.43;1.23;;;13.40;47.50;;;;;;4395661;32;20199;-72
2021/04/03 12:30:51;;;;;;;2.77;1.17;;;13.70;52.40;;;;;;4394474;32;20428;-71
2021/04/03 12:33:31;;;;;;;1.93;1.10;;;12.90;55.80;;;;;;4395979;32;20143;-70
2021/04/03 12:35:57;;;;;;;3.50;1.10;;;11.50;59.40;;;;;;4395922;32;20164;-71
2021/04/03 12:38:24;;;;;;;3.07;1.33;;;10.70;60.10;;;;;;4400057;32;20158;-72
2021/04/03 12:40:54;;;;;;;3.10;1.00;;;10.40;61.10;;;;;;4410628;32;20195;-70
2021/04/03 12:43:20;;;;;;;1.50;0.80;;;10.50;59.10;;;;;;4407574;32;20570;-71
2021/04/03 12:45:46;;;;;;;1.30;0.70;;;10.10;58.70;;;;;;4410945;32;20422;-72
2021/04/03 12:48:13;;;;;;;0.97;0.83;;;11.00;57.00;;;;;;4410628;32;20154;-71
2021/04/03 12:50:39;;;;;;;1.70;0.90;;;12.30;53.30;;;;;;4410830;32;20320;-70
2021/04/03 12:53:05;;;;;;;0.93;0.40;;;13.50;48.00;;;;;;4408447;32;20158;-70
2021/04/03 12:55:32;;;;;;;1.87;0.70;;;14.80;45.70;;;;;;4408972;32;20138;-72
2021/04/03 12:57:58;;;;;;;3.60;0.70;;;15.90;43.60;;;;;;4406459;32;20205;-71
2021/04/03 13:00:26;;;;;;;1.40;0.60;;;16.80;42.00;;;;;;4410324;32;20155;-73
2021/04/03 13:02:54;;;;;;;1.53;0.53;;;17.80;40.40;;;;;;4409194;32;20155;-72